createdAt,value
2019-05-20T00:02:26.010Z,13.03
2019-05-20T00:04:49.197Z,12.27
2019-05-20T00:07:21.637Z,17.73
2019-05-20T00:09:53.137Z,13.60
2019-05-20T00:12:24.581Z,11.23
2019-05-20T00:14:55.984Z,12.33
2019-05-20T00:17:27.630Z,11.40
2019-05-20T00:19:59.114Z,11.80
2019-05-20T00:22:30.602Z,16.33
2019-05-20T00:25:02.177Z,13.80
2019-05-20T00:27:34.149Z,13.33
2019-05-20T00:30:06.476Z,14.07
2019-05-20T00:32:41.615Z,13.13
2019-05-20T00:35:11.656Z,12.30
2019-05-20T00:37:43.266Z,14.90
2019-05-20T00:40:15.342Z,12.77
2019-05-20T00:42:46.749Z,13.43
2019-05-20T00:45:18.533Z,16.23
2019-05-20T00:47:49.970Z,12.90
2019-05-20T00:50:21.761Z,13.83
2019-05-20T00:52:53.243Z,12.37
2019-05-20T00:55:30.890Z,14.40
2019-05-20T00:58:02.450Z,12.60
2019-05-20T01:00:34.035Z,12.83
2019-05-20T01:03:05.528Z,13.63
2019-05-20T01:05:37.013Z,14.87
2019-05-20T01:08:08.402Z,13.83
2019-05-20T01:10:40.171Z,14.00
2019-05-20T01:13:11.637Z,11.53
2019-05-20T01:15:43.122Z,12.83
2019-05-20T01:18:14.584Z,11.80
2019-05-20T01:20:46.465Z,13.87
2019-05-20T01:23:17.913Z,14.20
2019-05-20T01:25:49.471Z,11.87
2019-05-20T01:28:20.792Z,12.33
2019-05-20T01:30:52.304Z,13.00
2019-05-20T01:33:23.873Z,12.23
2019-05-20T01:35:55.230Z,13.17
2019-05-20T01:38:26.785Z,13.37
2019-05-20T01:40:58.235Z,12.50
2019-05-20T01:43:29.969Z,11.90
2019-05-20T01:46:01.460Z,13.67
2019-05-20T01:48:33.166Z,13.43
2019-05-20T01:51:04.679Z,13.53
2019-05-20T01:53:37.150Z,11.73
2019-05-20T01:56:08.944Z,13.13
2019-05-20T01:58:40.562Z,13.00
2019-05-20T02:01:12.453Z,13.50
2019-05-20T02:03:43.961Z,11.57
2019-05-20T02:06:15.537Z,13.07
2019-05-20T02:08:47.007Z,13.50
2019-05-20T02:11:18.529Z,11.90
2019-05-20T02:13:57.072Z,11.93
2019-05-20T02:16:28.799Z,12.37
2019-05-20T02:19:00.291Z,13.10
2019-05-20T02:21:31.803Z,13.10
2019-05-20T02:24:03.212Z,14.63
2019-05-20T02:26:35.247Z,14.73
2019-05-20T02:29:06.729Z,13.83
2019-05-20T02:31:38.145Z,14.13
2019-05-20T02:34:09.576Z,17.80
2019-05-20T02:36:40.938Z,15.77
2019-05-20T02:39:12.401Z,15.60
2019-05-20T02:41:43.972Z,13.53
2019-05-20T02:44:15.479Z,16.50
2019-05-20T02:46:47.266Z,14.70
2019-05-20T02:49:19.640Z,15.30
2019-05-20T02:51:51.290Z,15.67
2019-05-20T02:54:22.791Z,14.47
2019-05-20T02:59:35.068Z,16.10
2019-05-20T03:02:07.960Z,16.07
2019-05-20T03:04:39.565Z,13.73
2019-05-20T03:07:11.119Z,16.27
2019-05-20T03:09:42.551Z,15.50
2019-05-20T03:12:14.062Z,14.57
2019-05-20T03:14:45.575Z,17.10
2019-05-20T03:17:17.226Z,15.03
2019-05-20T03:19:48.769Z,16.60
2019-05-20T03:22:20.286Z,16.60
2019-05-20T03:24:52.798Z,16.43
2019-05-20T03:27:24.333Z,15.27
2019-05-20T03:29:56.024Z,15.03
2019-05-20T03:32:27.502Z,17.23
2019-05-20T03:35:00.887Z,17.13
2019-05-20T03:37:32.264Z,17.77
2019-05-20T03:40:04.071Z,15.57
2019-05-20T03:42:35.570Z,17.63
2019-05-20T03:45:08.480Z,16.47
2019-05-20T03:47:39.989Z,17.10
2019-05-20T03:50:12.235Z,20.57
2019-05-20T03:52:43.743Z,16.13
2019-05-20T03:55:15.744Z,20.67
2019-05-20T03:57:47.291Z,17.23
2019-05-20T04:00:23.808Z,18.10
2019-05-20T04:02:55.638Z,19.20
2019-05-20T04:05:27.502Z,17.27
2019-05-20T04:07:59.376Z,16.00
2019-05-20T04:10:30.974Z,19.30
2019-05-20T04:13:02.514Z,17.27
2019-05-20T04:15:34.000Z,16.90
2019-05-20T04:18:06.236Z,17.33
2019-05-20T04:20:38.845Z,15.50
2019-05-20T04:23:10.710Z,18.30
2019-05-20T04:25:42.224Z,19.80
2019-05-20T04:28:14.321Z,18.87
2019-05-20T04:30:46.304Z,21.20
2019-05-20T04:33:17.896Z,19.90
2019-05-20T04:35:50.065Z,16.80
2019-05-20T04:38:21.799Z,19.30
2019-05-20T04:40:53.394Z,19.20
2019-05-20T04:43:24.941Z,18.43
2019-05-20T04:45:57.805Z,18.07
2019-05-20T04:48:29.493Z,19.27
2019-05-20T04:51:01.162Z,18.17
2019-05-20T04:53:32.805Z,19.63
2019-05-20T04:56:04.230Z,19.17
2019-05-20T04:58:35.799Z,20.60
2019-05-20T05:01:07.329Z,18.17
2019-05-20T05:03:38.823Z,18.43
2019-05-20T05:06:10.318Z,17.90
2019-05-20T05:08:41.889Z,20.53
2019-05-20T05:11:13.391Z,18.13
2019-05-20T05:13:45.359Z,19.43
2019-05-20T05:16:16.840Z,21.87
2019-05-20T05:18:48.361Z,17.00
2019-05-20T05:21:19.982Z,18.83
2019-05-20T05:23:59.156Z,17.27
2019-05-20T05:26:24.825Z,18.33
2019-05-20T05:28:56.429Z,18.43
2019-05-20T05:31:27.929Z,18.30
2019-05-20T05:33:59.767Z,22.87
2019-05-20T05:36:32.480Z,17.70
2019-05-20T05:39:05.443Z,14.23
2019-05-20T05:41:36.909Z,15.07
2019-05-20T05:44:08.467Z,16.47
2019-05-20T05:46:40.020Z,15.33
2019-05-20T05:49:11.536Z,15.00
2019-05-20T05:51:43.024Z,16.00
2019-05-20T05:54:14.639Z,16.07
2019-05-20T05:56:46.203Z,14.90
2019-05-20T05:59:18.505Z,15.03
2019-05-20T06:01:50.104Z,14.97
2019-05-20T06:04:21.872Z,15.03
2019-05-20T06:06:53.391Z,13.77
2019-05-20T06:09:24.925Z,14.77
2019-05-20T06:11:56.636Z,12.83
2019-05-20T06:14:28.126Z,14.57
2019-05-20T06:16:59.668Z,15.53
2019-05-20T06:19:31.195Z,13.37
2019-05-20T06:22:03.011Z,14.63
2019-05-20T06:24:34.765Z,15.90
2019-05-20T06:27:06.636Z,15.20
2019-05-20T06:29:38.164Z,14.47
2019-05-20T06:32:10.065Z,14.50
2019-05-20T06:34:42.997Z,13.70
2019-05-20T06:37:16.735Z,13.03
2019-05-20T06:39:51.113Z,15.27
2019-05-20T06:42:22.085Z,14.73
2019-05-20T06:44:57.196Z,14.93
2019-05-20T06:47:28.743Z,15.87
2019-05-20T06:50:00.636Z,15.37
2019-05-20T06:52:35.792Z,13.37
2019-05-20T06:55:06.474Z,14.53
2019-05-20T06:57:37.940Z,12.50
2019-05-20T07:00:10.811Z,14.07
2019-05-20T07:02:42.780Z,13.73
2019-05-20T07:05:14.617Z,15.40
2019-05-20T07:07:46.034Z,13.03
2019-05-20T07:10:17.629Z,15.13
2019-05-20T07:12:49.446Z,16.13
2019-05-20T07:15:20.988Z,13.97
2019-05-20T07:17:52.922Z,14.27
2019-05-20T07:20:24.616Z,12.77
2019-05-20T07:22:57.060Z,14.07
2019-05-20T07:25:29.713Z,15.33
2019-05-20T07:28:01.419Z,15.50
2019-05-20T07:30:33.153Z,13.80
2019-05-20T07:33:05.120Z,13.67
2019-05-20T07:35:36.741Z,14.17
2019-05-20T07:38:08.375Z,14.60
2019-05-20T07:40:39.951Z,14.60
2019-05-20T07:43:11.464Z,15.00
2019-05-20T07:45:44.012Z,15.77
2019-05-20T07:48:16.319Z,13.30
2019-05-20T07:50:50.084Z,14.03
2019-05-20T07:53:22.780Z,15.60
2019-05-20T07:56:08.677Z,15.07
2019-05-20T07:58:44.926Z,16.90
2019-05-20T08:01:17.345Z,16.10
2019-05-20T08:03:49.001Z,15.73
2019-05-20T08:06:20.951Z,15.47
2019-05-20T08:08:52.591Z,14.20
2019-05-20T08:11:24.095Z,16.60
2019-05-20T08:13:55.814Z,17.33
2019-05-20T08:16:27.538Z,16.37
2019-05-20T08:18:59.139Z,14.50
2019-05-20T08:21:30.797Z,15.97
2019-05-20T08:24:02.608Z,16.50
2019-05-20T08:26:34.277Z,17.47
2019-05-20T08:29:06.090Z,17.17
2019-05-20T08:31:38.177Z,18.00
2019-05-20T08:34:09.877Z,16.77
2019-05-20T08:36:42.154Z,16.80
2019-05-20T08:39:13.679Z,17.50
2019-05-20T08:41:45.253Z,17.97
2019-05-20T08:44:18.120Z,17.20
2019-05-20T08:46:50.378Z,14.83
2019-05-20T08:49:22.683Z,17.60
2019-05-20T08:51:54.615Z,17.93
2019-05-20T08:54:26.320Z,17.93
2019-05-20T08:56:57.804Z,16.43
2019-05-20T08:59:29.355Z,16.43
2019-05-20T09:02:00.862Z,16.13
2019-05-20T09:04:32.372Z,15.57
2019-05-20T09:07:04.153Z,16.03
2019-05-20T09:09:36.087Z,13.33
2019-05-20T09:12:07.969Z,16.07
2019-05-20T09:14:40.658Z,15.67
2019-05-20T09:17:12.458Z,15.65
2019-05-20T09:19:46.843Z,17.27
2019-05-20T09:22:19.346Z,18.43
2019-05-20T09:24:51.560Z,16.40
2019-05-20T09:27:23.214Z,14.43
2019-05-20T09:29:54.904Z,15.58
2019-05-20T09:32:27.807Z,16.17
2019-05-20T09:35:00.409Z,15.40
2019-05-20T09:37:31.970Z,14.77
2019-05-20T09:40:03.623Z,15.60
2019-05-20T09:42:40.619Z,16.15
2019-05-20T09:45:10.760Z,14.30
2019-05-20T09:47:42.332Z,13.35
2019-05-20T09:50:14.245Z,15.87
2019-05-20T09:52:46.244Z,16.93
2019-05-20T09:55:18.249Z,14.27
2019-05-20T09:57:50.344Z,16.27
2019-05-20T10:00:22.129Z,16.07
2019-05-20T10:02:53.709Z,16.00
2019-05-20T10:05:25.194Z,16.63
2019-05-20T10:07:56.987Z,17.33
2019-05-20T10:10:28.524Z,18.13
2019-05-20T10:13:00.159Z,15.77
2019-05-20T10:15:31.679Z,16.97
2019-05-20T10:18:03.208Z,15.87
2019-05-20T10:20:34.681Z,17.87
2019-05-20T10:23:07.362Z,19.13
2019-05-20T10:25:39.667Z,19.70
2019-05-20T10:28:11.155Z,16.60
2019-05-20T10:30:42.984Z,16.37
2019-05-20T10:33:14.904Z,18.27
2019-05-20T10:35:46.483Z,20.30
2019-05-20T10:38:18.087Z,20.10
2019-05-20T10:40:49.649Z,20.93
2019-05-20T10:43:21.148Z,22.03
2019-05-20T10:45:52.661Z,18.23
2019-05-20T10:48:24.748Z,19.03
2019-05-20T10:50:56.378Z,20.93
2019-05-20T10:53:28.530Z,18.33
2019-05-20T10:56:01.210Z,16.52
2019-05-20T10:58:33.222Z,19.07
2019-05-20T11:01:04.804Z,18.40
2019-05-20T11:03:37.442Z,18.87
2019-05-20T11:06:09.272Z,17.75
2019-05-20T11:08:40.783Z,18.50
2019-05-20T11:11:14.355Z,18.73
2019-05-20T11:13:45.706Z,20.97
2019-05-20T11:16:17.231Z,14.63
2019-05-20T11:18:48.717Z,11.93
2019-05-20T11:21:21.528Z,12.95
2019-05-20T11:23:53.028Z,13.53
2019-05-20T11:26:24.622Z,17.17
2019-05-20T11:28:56.169Z,13.77
2019-05-20T11:31:27.744Z,15.40
2019-05-20T11:33:59.247Z,15.67
2019-05-20T11:36:31.826Z,17.30
2019-05-20T11:39:06.997Z,16.37
2019-05-20T11:41:52.627Z,19.13
2019-05-20T11:44:12.053Z,20.03
2019-05-20T11:46:43.808Z,26.63
2019-05-20T11:49:16.005Z,24.37
2019-05-20T11:51:48.943Z,23.03
2019-05-20T11:54:21.838Z,23.50
2019-05-20T11:56:53.319Z,23.83
2019-05-20T11:59:24.984Z,28.43
2019-05-20T12:01:56.607Z,25.73
2019-05-20T12:04:28.117Z,25.53
2019-05-20T12:06:59.655Z,28.23
2019-05-20T12:09:47.827Z,30.37
2019-05-20T12:12:04.737Z,30.20
2019-05-20T12:14:36.611Z,29.87
2019-05-20T12:17:08.836Z,29.53
2019-05-20T12:19:40.693Z,30.37
2019-05-20T12:22:12.546Z,30.47
2019-05-20T12:24:44.028Z,30.57
2019-05-20T12:27:15.580Z,29.30
2019-05-20T12:29:47.056Z,31.57
2019-05-20T12:32:18.663Z,31.60
2019-05-20T12:34:50.751Z,31.80
2019-05-20T12:37:22.235Z,32.93
2019-05-20T12:40:06.503Z,33.10
2019-05-20T12:42:27.692Z,32.37
2019-05-20T12:44:59.965Z,34.87
2019-05-20T12:47:31.770Z,34.23
2019-05-20T12:50:03.282Z,33.37
2019-05-20T12:52:34.935Z,37.00
2019-05-20T12:55:09.766Z,35.13
2019-05-20T12:57:41.345Z,34.87
2019-05-20T13:00:14.924Z,33.87
2019-05-20T13:02:46.395Z,33.90
2019-05-20T13:05:18.276Z,33.07
2019-05-20T13:07:50.055Z,35.20
2019-05-20T13:10:29.738Z,33.77
2019-05-20T13:12:55.349Z,38.27
2019-05-20T13:15:26.900Z,34.73
2019-05-20T13:17:58.339Z,34.67
2019-05-20T13:20:29.896Z,35.73
2019-05-20T13:23:01.861Z,36.20
2019-05-20T13:25:33.853Z,36.37
2019-05-20T13:28:05.655Z,35.43
2019-05-20T13:30:37.236Z,38.23
2019-05-20T13:33:08.720Z,35.83
2019-05-20T13:35:40.238Z,38.17
2019-05-20T13:38:11.744Z,37.87
2019-05-20T13:40:47.242Z,37.73
2019-05-20T13:43:17.468Z,36.33
2019-05-20T13:45:48.987Z,35.90
2019-05-20T13:48:20.552Z,34.50
2019-05-20T13:50:52.172Z,34.93
2019-05-20T13:53:23.696Z,35.47
2019-05-20T13:55:55.305Z,33.80
2019-05-20T13:58:26.843Z,37.00
2019-05-20T14:00:58.381Z,34.70
2019-05-20T14:03:30.285Z,37.03
2019-05-20T14:06:01.786Z,35.13
2019-05-20T14:08:33.413Z,36.57
2019-05-20T14:11:05.328Z,34.80
2019-05-20T14:13:37.905Z,37.97
2019-05-20T14:16:09.950Z,34.50
2019-05-20T14:18:41.780Z,35.13
2019-05-20T14:21:13.659Z,35.33
2019-05-20T14:23:45.229Z,31.83
2019-05-20T14:26:16.958Z,32.27
2019-05-20T14:28:48.482Z,36.33
2019-05-20T14:31:19.994Z,37.03
2019-05-20T14:33:51.508Z,37.33
2019-05-20T14:36:38.442Z,31.87
2019-05-20T14:38:56.761Z,31.67
2019-05-20T14:41:28.298Z,27.83
2019-05-20T14:43:59.826Z,29.87
2019-05-20T14:46:31.365Z,31.97
2019-05-20T14:49:03.187Z,32.87
2019-05-20T14:51:34.774Z,25.10
2019-05-20T14:54:06.577Z,27.87
2019-05-20T14:56:38.741Z,26.13
2019-05-20T14:59:10.221Z,28.70
2019-05-20T15:01:42.092Z,30.80
2019-05-20T15:04:14.026Z,30.00
2019-05-20T15:06:45.538Z,28.73
2019-05-20T15:09:17.052Z,29.23
2019-05-20T15:11:48.492Z,27.37
2019-05-20T15:14:19.992Z,26.63
2019-05-20T15:16:51.529Z,27.33
2019-05-20T15:19:23.111Z,28.27
2019-05-20T15:21:54.666Z,26.57
2019-05-20T15:24:26.452Z,25.00
2019-05-20T15:26:58.148Z,32.07
2019-05-20T15:29:29.712Z,27.07
2019-05-20T15:32:01.474Z,29.87
2019-05-20T15:34:34.266Z,27.97
2019-05-20T15:37:06.238Z,30.40
2019-05-20T15:39:37.771Z,28.27
2019-05-20T15:42:09.354Z,31.17
2019-05-20T15:44:40.988Z,31.83
2019-05-20T15:47:12.496Z,37.77
2019-05-20T15:49:44.011Z,32.73
2019-05-20T15:52:15.515Z,34.80
2019-05-20T15:54:47.010Z,33.13
2019-05-20T15:57:18.669Z,30.17
2019-05-20T15:59:50.188Z,30.20
2019-05-20T16:02:22.152Z,36.90
2019-05-20T16:04:53.688Z,36.27
2019-05-20T16:07:25.570Z,36.87
2019-05-20T16:09:57.048Z,38.93
2019-05-20T16:12:28.716Z,38.30
2019-05-20T16:15:00.307Z,39.47
2019-05-20T16:17:32.075Z,44.30
2019-05-20T16:20:06.861Z,41.43
2019-05-20T16:22:37.129Z,41.40
2019-05-20T16:25:09.438Z,43.57
2019-05-20T16:27:41.199Z,52.83
2019-05-20T16:30:13.785Z,53.63
2019-05-20T16:32:45.617Z,20.93
2019-05-20T16:35:17.565Z,18.67
2019-05-20T16:37:49.406Z,22.57
2019-05-20T16:40:21.079Z,13.30
2019-05-20T16:42:52.629Z,10.07
2019-05-20T16:45:24.892Z,14.50
2019-05-20T16:47:56.410Z,15.53
2019-05-20T16:50:28.157Z,18.20
2019-05-20T16:52:59.865Z,24.37
2019-05-20T16:55:31.803Z,13.20
2019-05-20T16:58:03.318Z,6.57
2019-05-20T17:00:35.343Z,6.07
2019-05-20T17:03:06.910Z,7.40
2019-05-20T17:05:38.884Z,15.13
2019-05-20T17:08:10.487Z,9.57
2019-05-20T17:10:42.029Z,15.17
2019-05-20T17:13:13.641Z,8.93
2019-05-20T17:15:45.175Z,6.23
2019-05-20T17:18:16.702Z,5.93
2019-05-20T17:20:48.618Z,7.93
2019-05-20T17:23:20.112Z,11.87
2019-05-20T17:25:51.638Z,9.07
2019-05-20T17:28:23.208Z,9.03
2019-05-20T17:30:54.705Z,7.33
2019-05-20T17:33:26.551Z,7.80
2019-05-20T17:35:58.125Z,7.40
2019-05-20T17:38:29.679Z,9.77
2019-05-20T17:41:02.299Z,6.20
2019-05-20T17:43:33.778Z,10.60
2019-05-20T17:46:06.017Z,8.80
2019-05-20T17:48:37.839Z,7.10
2019-05-20T17:51:09.501Z,8.43
2019-05-20T17:53:41.051Z,9.23
2019-05-20T17:56:12.507Z,9.73
2019-05-20T17:58:44.069Z,11.47
2019-05-20T18:01:16.273Z,8.10
2019-05-20T18:03:48.141Z,10.00
2019-05-20T18:06:19.867Z,8.87
2019-05-20T18:08:54.004Z,8.67
2019-05-20T18:11:25.495Z,10.43
2019-05-20T18:13:57.410Z,10.03
2019-05-20T18:16:29.590Z,11.63
2019-05-20T18:19:01.963Z,8.23
2019-05-20T18:21:33.537Z,8.37
2019-05-20T18:24:05.131Z,8.30
2019-05-20T18:26:37.709Z,8.80
2019-05-20T18:29:09.323Z,7.63
2019-05-20T18:31:40.984Z,7.67
2019-05-20T18:34:12.563Z,6.57
2019-05-20T18:36:44.043Z,6.17
2019-05-20T18:39:15.797Z,9.10
2019-05-20T18:41:47.443Z,7.93
2019-05-20T18:44:19.017Z,8.17
2019-05-20T18:46:50.507Z,7.23
2019-05-20T18:49:22.301Z,6.27
2019-05-20T18:51:53.844Z,6.67
2019-05-20T18:54:26.263Z,7.57
2019-05-20T18:56:57.760Z,7.30
2019-05-20T18:59:30.398Z,4.93
2019-05-20T19:02:05.462Z,6.23
2019-05-20T19:04:35.110Z,8.23
2019-05-20T19:07:06.608Z,7.07
2019-05-20T19:09:38.254Z,5.73
2019-05-20T19:12:10.429Z,5.70
2019-05-20T19:14:42.445Z,7.63
2019-05-20T19:17:13.974Z,6.20
2019-05-20T19:19:45.423Z,6.27
2019-05-20T19:22:17.005Z,6.57
2019-05-20T19:24:48.492Z,7.27
2019-05-20T19:27:19.915Z,7.50
2019-05-20T19:29:51.458Z,7.43
2019-05-20T19:32:23.024Z,6.73
2019-05-20T19:34:54.860Z,5.57
2019-05-20T19:37:26.335Z,6.37
2019-05-20T19:39:58.063Z,5.70
2019-05-20T19:42:29.623Z,6.77
2019-05-20T19:45:01.078Z,5.33
2019-05-20T19:47:33.226Z,7.20
2019-05-20T19:50:05.043Z,6.87
2019-05-20T19:52:36.605Z,7.67
2019-05-20T19:55:08.822Z,6.47
2019-05-20T19:57:40.709Z,6.10
2019-05-20T20:00:12.751Z,6.13
2019-05-20T20:02:44.810Z,7.27
2019-05-20T20:05:16.502Z,7.10
2019-05-20T20:07:48.403Z,6.97
2019-05-20T20:10:20.322Z,7.60
2019-05-20T20:12:52.039Z,8.70
2019-05-20T20:15:23.682Z,7.07
2019-05-20T20:17:55.203Z,7.47
2019-05-20T20:20:26.750Z,7.77
2019-05-20T20:22:58.288Z,7.23
2019-05-20T20:25:30.130Z,5.67
2019-05-20T20:28:01.930Z,6.43
2019-05-20T20:30:33.587Z,6.70
2019-05-20T20:33:05.468Z,7.00
2019-05-20T20:35:38.396Z,7.63
2019-05-20T20:38:10.431Z,6.47
2019-05-20T20:40:42.031Z,5.83
2019-05-20T20:43:13.844Z,6.00
2019-05-20T20:45:46.011Z,5.87
2019-05-20T20:48:17.553Z,8.10
2019-05-20T20:50:49.396Z,5.93
2019-05-20T20:53:20.890Z,6.60
2019-05-20T20:55:52.676Z,7.77
2019-05-20T20:58:24.125Z,8.50
2019-05-20T21:00:56.633Z,7.87
2019-05-20T21:03:28.499Z,8.07
2019-05-20T21:06:00.617Z,9.40
2019-05-20T21:08:33.709Z,8.73
2019-05-20T21:11:05.300Z,10.37
2019-05-20T21:13:37.607Z,11.73
2019-05-20T21:16:09.528Z,12.50
2019-05-20T21:18:41.447Z,9.60
2019-05-20T21:21:13.269Z,11.10
2019-05-20T21:23:44.753Z,9.87
2019-05-20T21:26:16.530Z,12.77
2019-05-20T21:28:47.960Z,10.93
2019-05-20T21:31:19.471Z,11.97
2019-05-20T21:33:50.902Z,12.67
2019-05-20T21:36:22.458Z,11.27
2019-05-20T21:38:53.899Z,14.90
2019-05-20T21:41:25.319Z,11.43
2019-05-20T21:43:57.209Z,12.33
2019-05-20T21:46:28.766Z,16.03
2019-05-20T21:49:00.249Z,12.30
2019-05-20T21:51:31.778Z,11.33
2019-05-20T21:54:03.198Z,17.53
2019-05-20T21:56:34.708Z,12.77
2019-05-20T21:59:06.310Z,15.23
2019-05-20T22:01:38.416Z,12.97
2019-05-20T22:04:09.947Z,15.40
2019-05-20T22:06:41.474Z,14.60
2019-05-20T22:09:12.887Z,15.87
2019-05-20T22:11:44.451Z,16.10
2019-05-20T22:14:15.998Z,18.43
2019-05-20T22:16:47.867Z,17.00
2019-05-20T22:19:19.481Z,20.90
2019-05-20T22:21:57.094Z,19.43
2019-05-20T22:24:29.020Z,22.87
2019-05-20T22:27:00.693Z,19.67
2019-05-20T22:29:32.164Z,21.03
2019-05-20T22:32:04.046Z,18.77
2019-05-20T22:34:35.825Z,18.43
2019-05-20T22:37:07.420Z,22.10
2019-05-20T22:39:39.044Z,18.57
2019-05-20T22:42:10.547Z,18.97
2019-05-20T22:44:42.276Z,18.60
2019-05-20T22:47:13.892Z,20.03
2019-05-20T22:49:45.346Z,17.17
2019-05-20T22:52:17.125Z,17.93
2019-05-20T22:54:49.108Z,18.30
2019-05-20T22:57:20.657Z,17.33
2019-05-20T22:59:52.247Z,15.73
2019-05-20T23:02:23.799Z,16.93
2019-05-20T23:04:55.326Z,18.60
2019-05-20T23:07:27.187Z,17.43
2019-05-20T23:09:58.739Z,19.00
2019-05-20T23:12:31.366Z,17.20
2019-05-20T23:15:03.121Z,20.17
2019-05-20T23:17:35.120Z,19.70
2019-05-20T23:20:07.972Z,17.40
2019-05-20T23:22:39.833Z,19.97
2019-05-20T23:25:11.438Z,17.33
2019-05-20T23:27:43.819Z,15.13
2019-05-20T23:30:15.551Z,16.80
2019-05-20T23:32:47.055Z,17.00
2019-05-20T23:35:18.880Z,15.30
2019-05-20T23:37:50.788Z,18.87
2019-05-20T23:40:22.556Z,15.77
2019-05-20T23:42:55.117Z,19.13
2019-05-20T23:45:26.961Z,19.13
2019-05-20T23:47:58.782Z,16.33
2019-05-20T23:50:30.404Z,15.57
2019-05-20T23:53:01.932Z,13.23
2019-05-20T23:55:33.412Z,13.07
2019-05-20T23:58:04.934Z,13.27
